createdAt,value
2023-03-18T00:00:52.769Z,64.70
2023-03-18T00:03:57.070Z,64.80
2023-03-18T00:07:03.155Z,64.80
2023-03-18T00:10:09.481Z,65.50
2023-03-18T00:13:15.316Z,64.80
2023-03-18T00:16:21.434Z,64.90
2023-03-18T00:19:27.413Z,64.90
2023-03-18T00:22:31.510Z,64.90
2023-03-18T00:25:38.293Z,65.00
2023-03-18T00:28:42.320Z,64.90
2023-03-18T00:31:50.796Z,65.00
2023-03-18T00:34:54.824Z,65.00
2023-03-18T00:38:03.270Z,65.00
2023-03-18T00:41:15.081Z,65.10
2023-03-18T00:44:21.864Z,65.00
2023-03-18T00:47:27.911Z,65.10
2023-03-18T00:50:33.930Z,65.10
2023-03-18T00:53:38.222Z,65.00
2023-03-18T00:56:44.372Z,65.10
2023-03-18T00:59:48.342Z,65.20
2023-03-18T01:02:56.382Z,65.20
2023-03-18T01:06:01.914Z,65.30
2023-03-18T01:09:11.217Z,65.30
2023-03-18T01:12:17.598Z,65.40
2023-03-18T01:15:23.895Z,65.40
2023-03-18T01:18:29.734Z,65.50
2023-03-18T01:21:35.754Z,65.60
2023-03-18T01:24:40.235Z,65.60
2023-03-18T01:27:46.573Z,65.70
2023-03-18T01:30:51.128Z,65.70
2023-03-18T01:34:02.600Z,65.80
2023-03-18T01:37:16.025Z,65.80
2023-03-18T01:40:25.885Z,65.90
2023-03-18T01:43:33.829Z,65.90
2023-03-18T01:46:42.301Z,66.00
2023-03-18T01:49:51.715Z,66.00
2023-03-18T01:53:00.981Z,66.10
2023-03-18T01:56:06.216Z,66.10
2023-03-18T01:59:13.203Z,66.20
2023-03-18T02:02:18.925Z,66.20
2023-03-18T02:05:30.014Z,66.20
2023-03-18T02:08:34.231Z,66.20
2023-03-18T02:11:45.217Z,66.20
2023-03-18T02:14:52.507Z,66.30
2023-03-18T02:18:05.255Z,66.40
2023-03-18T02:21:27.570Z,66.40
2023-03-18T02:24:40.363Z,66.50
2023-03-18T02:27:58.656Z,66.50
2023-03-18T02:31:13.136Z,66.50
2023-03-18T02:34:19.471Z,66.60
2023-03-18T02:37:25.474Z,66.60
2023-03-18T02:40:32.564Z,66.70
2023-03-18T02:43:42.017Z,66.70
2023-03-18T02:46:54.867Z,66.80
2023-03-18T02:50:02.384Z,66.90
2023-03-18T02:53:07.279Z,66.90
2023-03-18T02:56:13.773Z,66.90
2023-03-18T02:59:22.802Z,67.00
2023-03-18T03:02:29.009Z,67.10
2023-03-18T03:05:34.639Z,67.10
2023-03-18T03:08:41.301Z,67.20
2023-03-18T03:11:47.593Z,67.20
2023-03-18T03:15:01.379Z,67.30
2023-03-18T03:18:09.585Z,67.30
2023-03-18T03:21:17.322Z,67.40
2023-03-18T03:24:21.716Z,67.50
2023-03-18T03:27:27.871Z,67.50
2023-03-18T03:30:34.129Z,67.60
2023-03-18T03:33:43.094Z,67.60
2023-03-18T03:36:47.034Z,67.70
2023-03-18T03:39:53.117Z,67.80
2023-03-18T03:42:57.150Z,67.80
2023-03-18T03:46:05.512Z,67.80
2023-03-18T03:49:09.691Z,68.00
2023-03-18T03:52:17.652Z,68.00
2023-03-18T03:55:23.915Z,68.00
2023-03-18T03:58:31.328Z,68.10
2023-03-18T04:01:36.923Z,68.10
2023-03-18T04:04:43.088Z,68.10
2023-03-18T04:07:59.295Z,68.00
2023-03-18T04:11:16.616Z,68.20
2023-03-18T04:14:20.814Z,68.30
2023-03-18T04:17:29.582Z,68.40
2023-03-18T04:20:33.751Z,68.50
2023-03-18T04:23:42.232Z,68.50
2023-03-18T04:26:46.464Z,68.60
2023-03-18T04:29:52.637Z,68.70
2023-03-18T04:33:01.385Z,68.70
2023-03-18T04:36:09.302Z,68.80
2023-03-18T04:39:14.627Z,68.90
2023-03-18T04:42:21.270Z,68.90
2023-03-18T04:45:25.442Z,69.00
2023-03-18T04:48:36.868Z,69.00
2023-03-18T04:51:42.394Z,69.10
2023-03-18T04:54:58.102Z,69.10
2023-03-18T04:58:02.680Z,69.20
2023-03-18T05:01:15.150Z,69.20
2023-03-18T05:04:21.906Z,69.30
2023-03-18T05:07:31.599Z,69.40
2023-03-18T05:10:41.495Z,69.40
2023-03-18T05:13:51.503Z,69.40
2023-03-18T05:16:57.089Z,69.50
2023-03-18T05:20:06.304Z,70.20
2023-03-18T05:23:11.098Z,69.70
2023-03-18T05:26:24.081Z,69.80
2023-03-18T05:29:28.331Z,69.90
2023-03-18T05:32:53.549Z,69.90
2023-03-18T05:36:06.061Z,70.00
2023-03-18T05:39:18.022Z,70.10
2023-03-18T05:42:21.776Z,70.20
2023-03-18T05:45:28.061Z,70.10
2023-03-18T05:48:33.601Z,70.00
2023-03-18T05:51:46.123Z,70.10
2023-03-18T05:54:55.943Z,70.30
2023-03-18T05:58:07.002Z,70.40
2023-03-18T06:01:13.511Z,70.50
2023-03-18T06:04:20.250Z,70.60
2023-03-18T06:07:27.455Z,70.70
2023-03-18T06:10:33.564Z,70.80
2023-03-18T06:13:38.285Z,70.90
2023-03-18T06:16:45.028Z,71.00
2023-03-18T06:19:50.329Z,71.00
2023-03-18T06:22:59.304Z,71.10
2023-03-18T06:26:04.935Z,71.30
2023-03-18T06:29:15.940Z,71.30
2023-03-18T06:32:21.164Z,71.40
2023-03-18T06:35:28.404Z,71.50
2023-03-18T06:38:34.666Z,71.60
2023-03-18T06:41:41.881Z,71.70
2023-03-18T06:45:07.737Z,71.80
2023-03-18T06:48:24.698Z,71.80
2023-03-18T06:51:29.456Z,71.90
2023-03-18T06:54:38.642Z,71.90
2023-03-18T06:57:42.720Z,72.10
2023-03-18T07:00:50.403Z,72.10
2023-03-18T07:04:02.887Z,72.20
2023-03-18T07:07:10.225Z,72.30
2023-03-18T07:10:22.046Z,72.40
2023-03-18T07:13:28.620Z,72.60
2023-03-18T07:16:32.892Z,72.40
2023-03-18T07:19:39.192Z,72.20
2023-03-18T07:22:43.555Z,72.40
2023-03-18T07:25:52.040Z,72.60
2023-03-18T07:28:56.906Z,72.80
2023-03-18T07:32:03.997Z,72.90
2023-03-18T07:35:10.247Z,72.90
2023-03-18T07:38:17.566Z,73.00
2023-03-18T07:41:23.384Z,73.20
2023-03-18T07:44:29.728Z,73.20
2023-03-18T07:47:33.862Z,73.30
2023-03-18T07:50:40.331Z,74.00
2023-03-18T07:53:44.893Z,73.50
2023-03-18T07:56:53.672Z,73.50
2023-03-18T07:59:58.551Z,73.70
2023-03-18T08:03:05.424Z,73.90
2023-03-18T08:06:10.684Z,73.80
2023-03-18T08:09:16.866Z,73.90
2023-03-18T08:12:23.063Z,74.10
2023-03-18T08:15:29.023Z,74.40
2023-03-18T08:18:32.615Z,74.50
2023-03-18T08:21:38.888Z,74.40
2023-03-18T08:24:45.114Z,74.80
2023-03-18T08:27:53.611Z,74.40
2023-03-18T08:30:58.606Z,74.40
2023-03-18T08:34:04.971Z,74.60
2023-03-18T08:37:09.464Z,74.70
2023-03-18T08:40:15.479Z,74.90
2023-03-18T08:43:22.663Z,75.00
2023-03-18T08:46:28.755Z,75.60
2023-03-18T08:49:33.048Z,74.90
2023-03-18T08:52:40.564Z,74.90
2023-03-18T08:55:44.457Z,74.80
2023-03-18T08:58:52.809Z,74.80
2023-03-18T09:01:57.200Z,75.00
2023-03-18T09:05:03.112Z,75.00
2023-03-18T09:08:07.773Z,75.00
2023-03-18T09:11:14.117Z,74.90
2023-03-18T09:14:19.972Z,74.90
2023-03-18T09:17:43.816Z,74.80
2023-03-18T09:20:50.787Z,74.70
2023-03-18T09:23:57.502Z,74.60
2023-03-18T09:27:01.388Z,74.60
2023-03-18T09:30:11.751Z,74.50
2023-03-18T09:33:15.902Z,74.50
2023-03-18T09:36:21.942Z,74.50
2023-03-18T09:39:26.552Z,74.60
2023-03-18T09:42:51.368Z,74.60
2023-03-18T09:46:07.037Z,74.80
2023-03-18T09:49:54.931Z,74.70
2023-03-18T09:53:13.348Z,74.60
2023-03-18T09:56:24.556Z,74.40
2023-03-18T09:59:37.704Z,74.50
2023-03-18T10:02:49.803Z,74.40
2023-03-18T10:05:58.242Z,74.40
2023-03-18T10:09:11.226Z,74.20
2023-03-18T10:12:19.984Z,74.10
2023-03-18T10:15:33.517Z,74.00
2023-03-18T10:18:42.715Z,73.80
2023-03-18T10:21:54.015Z,73.70
2023-03-18T10:25:06.937Z,73.70
2023-03-18T10:28:38.552Z,73.70
2023-03-18T10:31:56.502Z,73.60
2023-03-18T10:35:20.104Z,73.60
2023-03-18T10:38:27.441Z,73.50
2023-03-18T10:41:37.108Z,73.50
2023-03-18T10:44:45.007Z,73.40
2023-03-18T10:48:04.878Z,73.40
2023-03-18T10:51:17.916Z,73.40
2023-03-18T10:54:28.726Z,73.40
2023-03-18T10:57:32.896Z,73.40
2023-03-18T11:00:39.041Z,73.30
2023-03-18T11:03:46.046Z,73.20
2023-03-18T11:06:57.520Z,73.10
2023-03-18T11:10:15.077Z,72.90
2023-03-18T11:13:23.506Z,72.70
2023-03-18T11:16:38.421Z,72.70
2023-03-18T11:19:49.186Z,72.50
2023-03-18T11:22:57.000Z,72.30
2023-03-18T11:26:03.946Z,72.20
2023-03-18T11:29:14.645Z,72.10
2023-03-18T11:32:27.589Z,71.90
2023-03-18T11:35:39.272Z,71.90
2023-03-18T11:38:59.076Z,71.90
2023-03-18T11:42:03.426Z,71.80
2023-03-18T11:45:29.239Z,71.90
2023-03-18T11:48:37.250Z,71.70
2023-03-18T11:51:48.405Z,71.60
2023-03-18T11:55:13.397Z,71.50
2023-03-18T11:58:54.865Z,71.20
2023-03-18T12:02:12.998Z,71.00
2023-03-18T12:05:46.321Z,71.00
2023-03-18T12:09:02.722Z,70.70
2023-03-18T12:12:25.991Z,70.70
2023-03-18T12:15:42.131Z,70.40
2023-03-18T12:18:58.704Z,70.20
2023-03-18T12:22:27.846Z,70.00
2023-03-18T12:25:53.856Z,69.60
2023-03-18T12:29:20.020Z,69.50
2023-03-18T12:32:31.328Z,69.30
2023-03-18T12:35:47.948Z,69.30
2023-03-18T12:39:30.982Z,69.50
2023-03-18T12:42:47.488Z,68.60
2023-03-18T12:46:03.249Z,68.80
2023-03-18T12:49:14.054Z,68.60
2023-03-18T12:52:29.527Z,68.50
2023-03-18T12:55:37.849Z,68.40
2023-03-18T12:58:48.180Z,68.30
2023-03-18T13:02:14.749Z,68.10
2023-03-18T13:05:29.632Z,67.80
2023-03-18T13:08:59.284Z,67.80
2023-03-18T13:12:13.055Z,67.40
2023-03-18T13:15:28.760Z,67.50
2023-03-18T13:18:39.986Z,67.30
2023-03-18T13:21:51.002Z,67.20
2023-03-18T13:25:05.388Z,67.20
2023-03-18T13:28:43.266Z,67.00
2023-03-18T13:31:55.955Z,66.80
2023-03-18T13:35:27.738Z,66.90
2023-03-18T13:38:48.060Z,66.80
2023-03-18T13:42:17.978Z,66.80
2023-03-18T13:45:28.845Z,66.60
2023-03-18T13:48:36.383Z,66.80
2023-03-18T13:51:52.459Z,66.70
2023-03-18T13:55:03.627Z,66.40
2023-03-18T13:58:22.059Z,66.40
2023-03-18T14:01:34.900Z,66.10
2023-03-18T14:04:49.392Z,66.30
2023-03-18T14:07:57.317Z,66.10
2023-03-18T14:11:49.726Z,66.10
2023-03-18T14:15:05.314Z,65.70
2023-03-18T14:18:26.004Z,65.80
2023-03-18T14:21:35.230Z,65.70
2023-03-18T14:24:43.335Z,65.90
2023-03-18T14:27:52.929Z,65.80
2023-03-18T14:31:13.452Z,65.70
2023-03-18T14:34:31.447Z,65.60
2023-03-18T14:37:37.798Z,65.50
2023-03-18T14:40:50.921Z,65.60
2023-03-18T14:44:04.878Z,65.50
2023-03-18T14:47:31.971Z,66.10
2023-03-18T14:50:43.803Z,65.40
2023-03-18T14:53:54.186Z,65.60
2023-03-18T14:57:05.642Z,65.50
2023-03-18T15:00:16.594Z,65.70
2023-03-18T15:03:24.234Z,65.70
2023-03-18T15:06:31.826Z,65.70
2023-03-18T15:09:37.704Z,65.80
2023-03-18T15:12:46.497Z,65.90
2023-03-18T15:15:54.162Z,65.80
2023-03-18T15:19:01.018Z,66.50
2023-03-18T15:22:08.096Z,65.90
2023-03-18T15:25:20.474Z,65.90
2023-03-18T15:28:31.242Z,65.80
2023-03-18T15:31:41.990Z,65.80
2023-03-18T15:34:47.664Z,65.80
2023-03-18T15:38:07.205Z,65.90
2023-03-18T15:41:13.363Z,65.80
2023-03-18T15:44:28.105Z,65.90
2023-03-18T15:47:33.825Z,65.80
2023-03-18T15:50:52.608Z,65.80
2023-03-18T15:53:58.518Z,65.80
2023-03-18T15:57:12.896Z,65.80
2023-03-18T16:00:20.064Z,65.60
2023-03-18T16:03:30.765Z,65.70
2023-03-18T16:06:36.224Z,65.70
2023-03-18T16:09:42.357Z,65.70
2023-03-18T16:12:47.653Z,65.70
2023-03-18T16:15:56.189Z,65.80
2023-03-18T16:19:00.862Z,65.70
2023-03-18T16:22:06.871Z,65.80
2023-03-18T16:25:11.308Z,65.70
2023-03-18T16:28:21.501Z,65.90
2023-03-18T16:31:27.430Z,65.90
2023-03-18T16:34:34.422Z,65.90
2023-03-18T16:37:38.530Z,65.90
2023-03-18T16:40:46.122Z,66.00
2023-03-18T16:43:50.614Z,66.00
2023-03-18T16:46:59.412Z,66.00
2023-03-18T16:50:04.694Z,66.20
2023-03-18T16:53:35.052Z,66.20
2023-03-18T16:56:51.781Z,66.30
2023-03-18T17:00:00.275Z,66.40
2023-03-18T17:03:06.471Z,66.40
2023-03-18T17:06:14.467Z,66.50
2023-03-18T17:09:18.628Z,66.50
2023-03-18T17:12:25.895Z,66.60
2023-03-18T17:15:32.708Z,66.60
2023-03-18T17:18:43.056Z,66.70
2023-03-18T17:21:47.221Z,66.70
2023-03-18T17:24:53.286Z,66.80
2023-03-18T17:27:58.855Z,66.80
2023-03-18T17:31:06.074Z,66.90
2023-03-18T17:34:15.560Z,66.90
2023-03-18T17:37:23.146Z,66.90
2023-03-18T17:40:31.095Z,67.00
2023-03-18T17:43:38.223Z,67.00
2023-03-18T17:46:42.396Z,67.00
2023-03-18T17:49:50.308Z,67.00
2023-03-18T17:52:54.560Z,67.10
2023-03-18T17:56:01.200Z,67.10
2023-03-18T17:59:13.981Z,67.10
2023-03-18T18:02:20.717Z,67.10
2023-03-18T18:05:26.961Z,67.10
2023-03-18T18:08:33.625Z,67.10
2023-03-18T18:11:43.509Z,67.10
2023-03-18T18:14:49.777Z,67.20
2023-03-18T18:17:55.070Z,67.20
2023-03-18T18:21:04.939Z,67.20
2023-03-18T18:24:16.507Z,67.20
2023-03-18T18:27:23.647Z,67.30
2023-03-18T18:30:27.960Z,67.30
2023-03-18T18:33:35.310Z,67.40
2023-03-18T18:36:42.197Z,67.30
2023-03-18T18:39:48.439Z,67.50
2023-03-18T18:42:52.777Z,67.40
2023-03-18T18:45:59.960Z,67.60
2023-03-18T18:49:04.077Z,67.50
2023-03-18T18:52:15.211Z,67.60
2023-03-18T18:55:19.612Z,68.30
2023-03-18T18:58:30.491Z,67.70
2023-03-18T19:01:34.577Z,67.90
2023-03-18T19:04:40.873Z,67.90
2023-03-18T19:07:47.658Z,68.00
2023-03-18T19:10:55.779Z,68.20
2023-03-18T19:14:17.834Z,68.30
2023-03-18T19:17:25.349Z,68.40
2023-03-18T19:20:33.605Z,68.40
2023-03-18T19:23:42.048Z,68.50
2023-03-18T19:26:46.606Z,68.60
2023-03-18T19:29:54.447Z,68.70
2023-03-18T19:33:01.767Z,68.80
2023-03-18T19:36:10.534Z,68.80
2023-03-18T19:39:18.208Z,69.00
2023-03-18T19:42:24.366Z,69.00
2023-03-18T19:45:28.540Z,69.10
2023-03-18T19:48:34.557Z,69.10
2023-03-18T19:51:38.869Z,69.30
2023-03-18T19:54:47.526Z,69.40
2023-03-18T19:57:59.270Z,69.50
2023-03-18T20:01:05.333Z,69.60
2023-03-18T20:04:14.938Z,69.60
2023-03-18T20:07:22.673Z,69.50
2023-03-18T20:10:29.360Z,69.50
2023-03-18T20:13:36.016Z,69.70
2023-03-18T20:16:40.099Z,69.70
2023-03-18T20:19:46.489Z,69.90
2023-03-18T20:22:55.529Z,69.90
2023-03-18T20:26:03.991Z,70.00
2023-03-18T20:29:17.730Z,70.00
2023-03-18T20:32:23.738Z,70.20
2023-03-18T20:35:30.333Z,70.20
2023-03-18T20:38:38.464Z,70.20
2023-03-18T20:41:44.476Z,70.30
2023-03-18T20:44:50.847Z,70.30
2023-03-18T20:47:56.053Z,70.70
2023-03-18T20:51:02.886Z,70.50
2023-03-18T20:54:19.030Z,70.60
2023-03-18T20:57:28.163Z,70.80
2023-03-18T21:00:34.020Z,70.70
2023-03-18T21:03:40.276Z,70.80
2023-03-18T21:06:44.476Z,70.90
2023-03-18T21:09:50.949Z,71.00
2023-03-18T21:12:56.874Z,71.00
2023-03-18T21:16:03.940Z,71.10
2023-03-18T21:19:08.111Z,71.20
2023-03-18T21:22:17.923Z,71.30
2023-03-18T21:25:23.786Z,71.40
2023-03-18T21:28:32.688Z,71.40
2023-03-18T21:31:36.981Z,71.50
2023-03-18T21:34:43.451Z,71.50
2023-03-18T21:37:47.282Z,71.60
2023-03-18T21:40:54.044Z,71.70
2023-03-18T21:44:00.227Z,71.60
2023-03-18T21:47:06.796Z,71.70
2023-03-18T21:50:20.326Z,71.70
2023-03-18T21:53:26.924Z,71.90
2023-03-18T21:56:31.540Z,71.90
2023-03-18T21:59:39.892Z,71.90
2023-03-18T22:02:44.383Z,72.00
2023-03-18T22:05:52.154Z,72.00
2023-03-18T22:08:56.661Z,72.10
2023-03-18T22:12:02.589Z,72.20
2023-03-18T22:15:28.173Z,72.30
2023-03-18T22:18:34.349Z,72.30
2023-03-18T22:21:38.547Z,72.10
2023-03-18T22:24:44.489Z,72.40
2023-03-18T22:27:48.063Z,72.50
2023-03-18T22:30:57.010Z,72.50
2023-03-18T22:34:01.012Z,72.40
2023-03-18T22:37:07.225Z,72.50
2023-03-18T22:40:16.237Z,72.50
2023-03-18T22:43:34.120Z,72.60
2023-03-18T22:46:40.276Z,72.50
2023-03-18T22:49:46.412Z,72.50
2023-03-18T22:52:51.504Z,72.60
2023-03-18T22:55:58.147Z,72.60
2023-03-18T22:59:03.940Z,72.70
2023-03-18T23:02:17.067Z,72.70
2023-03-18T23:05:23.578Z,72.80
2023-03-18T23:08:30.730Z,72.80
2023-03-18T23:11:36.628Z,72.90
2023-03-18T23:14:42.519Z,72.90
2023-03-18T23:17:50.960Z,72.90
2023-03-18T23:20:55.037Z,72.90
2023-03-18T23:24:01.098Z,73.00
2023-03-18T23:27:05.276Z,73.00
2023-03-18T23:30:13.658Z,72.90
2023-03-18T23:33:20.518Z,73.00
2023-03-18T23:36:26.707Z,73.10
2023-03-18T23:39:30.651Z,73.00
2023-03-18T23:42:36.857Z,73.10
2023-03-18T23:45:40.774Z,73.10
2023-03-18T23:48:49.028Z,73.20
2023-03-18T23:51:52.857Z,73.20
2023-03-18T23:54:59.203Z,73.20
2023-03-18T23:58:03.694Z,73.30
